To NAV CANADA Home Page Login to a new session Search on AWWS site Disclaimer Vers la page française équivalente Tips FAQ What's new on the site To the Forecasts and Observations / NOTAM section To "File a Flight Plan" website Publications and other links Update of the User's profile FIC Telephone Numbers My Weather Data Folder Route Weather Data Regional Weather Data Local Weather Data To the Forecasts and Observations / NOTAM section
Request Generated 03/19/2019 at 23:44:49 UTC . Weather information available at that time is displayed.

METAR/TAF

NATASHQUAN/QC    (show WxCam)

METAR CYNA 192300Z AUTO 26009KT 9SM CLR M07/M15 A3019 RMK SLP225=
METAR CYNA 192200Z AUTO 26009KT 9SM CLR M07/M16 A3018 RMK SLP221=
METAR CYNA 192100Z AUTO 25010KT 9SM CLR M07/M16 A3017 RMK SLP220=

TAF CYNA 191938Z 1920/2008 26006KT P6SM FEW040
RMK FCST BASED ON AUTO OBS. NXT FCST BY 200200Z=
Your time UTC time
Weather data provided by Environment Canada and NAV CANADA